sensor_id;sensor_type;location;lat;lon;timestamp;P1;durP1;ratioP1;P2;durP2;ratioP2
17662;SDS011;8950;56.892;15.090;2023-03-30T00:00:40;1.00;;;1.00;;
17662;SDS011;8950;56.892;15.090;2023-03-30T00:03:07;1.55;;;1.10;;
17662;SDS011;8950;56.892;15.090;2023-03-30T00:05:34;1.25;;;1.15;;
17662;SDS011;8950;56.892;15.090;2023-03-30T00:08:02;1.30;;;1.30;;
17662;SDS011;8950;56.892;15.090;2023-03-30T00:10:31;1.02;;;1.02;;
17662;SDS011;8950;56.892;15.090;2023-03-30T00:12:57;1.20;;;1.20;;
17662;SDS011;8950;56.892;15.090;2023-03-30T00:15:24;1.38;;;1.27;;
17662;SDS011;8950;56.892;15.090;2023-03-30T00:17:50;1.10;;;1.10;;
17662;SDS011;8950;56.892;15.090;2023-03-30T00:20:19;1.30;;;1.20;;
17662;SDS011;8950;56.892;15.090;2023-03-30T00:22:45;1.13;;;1.13;;
17662;SDS011;8950;56.892;15.090;2023-03-30T00:25:13;1.25;;;1.20;;
17662;SDS011;8950;56.892;15.090;2023-03-30T00:27:41;1.20;;;1.20;;
17662;SDS011;8950;56.892;15.090;2023-03-30T00:30:09;1.10;;;1.10;;
17662;SDS011;8950;56.892;15.090;2023-03-30T00:32:36;1.10;;;1.10;;
17662;SDS011;8950;56.892;15.090;2023-03-30T00:35:03;1.17;;;1.17;;
17662;SDS011;8950;56.892;15.090;2023-03-30T00:37:30;1.00;;;1.00;;
17662;SDS011;8950;56.892;15.090;2023-03-30T00:39:57;1.00;;;1.00;;
17662;SDS011;8950;56.892;15.090;2023-03-30T00:42:23;1.00;;;1.00;;
17662;SDS011;8950;56.892;15.090;2023-03-30T00:47:43;1.08;;;1.08;;
17662;SDS011;8950;56.892;15.090;2023-03-30T00:50:11;1.20;;;1.20;;
17662;SDS011;8950;56.892;15.090;2023-03-30T00:52:37;1.10;;;1.10;;
17662;SDS011;8950;56.892;15.090;2023-03-30T00:55:05;1.10;;;1.10;;
17662;SDS011;8950;56.892;15.090;2023-03-30T00:57:33;1.20;;;1.20;;
17662;SDS011;8950;56.892;15.090;2023-03-30T01:00:00;1.13;;;1.13;;
17662;SDS011;8950;56.892;15.090;2023-03-30T01:02:30;1.20;;;1.20;;
17662;SDS011;8950;56.892;15.090;2023-03-30T01:05:01;1.10;;;1.10;;
17662;SDS011;8950;56.892;15.090;2023-03-30T01:07:29;1.00;;;1.00;;
17662;SDS011;8950;56.892;15.090;2023-03-30T01:09:55;1.20;;;1.20;;
17662;SDS011;8950;56.892;15.090;2023-03-30T01:12:22;1.10;;;1.10;;
17662;SDS011;8950;56.892;15.090;2023-03-30T01:14:48;1.08;;;1.08;;
17662;SDS011;8950;56.892;15.090;2023-03-30T01:17:17;1.10;;;1.10;;
17662;SDS011;8950;56.892;15.090;2023-03-30T01:22:43;1.13;;;1.10;;
17662;SDS011;8950;56.892;15.090;2023-03-30T01:25:30;1.15;;;1.10;;
17662;SDS011;8950;56.892;15.090;2023-03-30T01:28:04;1.25;;;1.20;;
17662;SDS011;8950;56.892;15.090;2023-03-30T01:33:36;1.15;;;1.15;;
17662;SDS011;8950;56.892;15.090;2023-03-30T01:39:08;1.20;;;1.10;;
17662;SDS011;8950;56.892;15.090;2023-03-30T01:41:39;1.27;;;1.17;;
17662;SDS011;8950;56.892;15.090;2023-03-30T01:44:09;1.50;;;1.40;;
17662;SDS011;8950;56.892;15.090;2023-03-30T01:46:37;1.45;;;1.35;;
17662;SDS011;8950;56.892;15.090;2023-03-30T01:49:08;1.30;;;1.20;;
17662;SDS011;8950;56.892;15.090;2023-03-30T01:51:37;1.35;;;1.30;;
17662;SDS011;8950;56.892;15.090;2023-03-30T01:54:08;1.27;;;1.17;;
17662;SDS011;8950;56.892;15.090;2023-03-30T01:56:35;1.20;;;1.13;;
17662;SDS011;8950;56.892;15.090;2023-03-30T01:59:04;1.10;;;1.10;;
17662;SDS011;8950;56.892;15.090;2023-03-30T02:01:33;1.10;;;1.10;;
17662;SDS011;8950;56.892;15.090;2023-03-30T02:04:02;1.15;;;1.10;;
17662;SDS011;8950;56.892;15.090;2023-03-30T02:06:31;1.10;;;1.10;;
17662;SDS011;8950;56.892;15.090;2023-03-30T02:09:02;1.10;;;1.10;;
17662;SDS011;8950;56.892;15.090;2023-03-30T02:11:31;1.05;;;1.05;;
17662;SDS011;8950;56.892;15.090;2023-03-30T02:13:58;1.00;;;1.00;;
17662;SDS011;8950;56.892;15.090;2023-03-30T02:16:27;1.10;;;1.10;;
17662;SDS011;8950;56.892;15.090;2023-03-30T02:18:55;1.00;;;1.00;;
17662;SDS011;8950;56.892;15.090;2023-03-30T02:21:22;1.10;;;1.10;;
17662;SDS011;8950;56.892;15.090;2023-03-30T02:23:48;1.13;;;1.02;;
17662;SDS011;8950;56.892;15.090;2023-03-30T02:26:18;1.48;;;1.00;;
17662;SDS011;8950;56.892;15.090;2023-03-30T02:28:46;1.10;;;1.10;;
17662;SDS011;8950;56.892;15.090;2023-03-30T02:31:12;1.08;;;1.00;;
17662;SDS011;8950;56.892;15.090;2023-03-30T02:33:42;1.27;;;1.00;;
17662;SDS011;8950;56.892;15.090;2023-03-30T02:36:25;1.00;;;1.00;;
17662;SDS011;8950;56.892;15.090;2023-03-30T02:39:00;1.00;;;1.00;;
17662;SDS011;8950;56.892;15.090;2023-03-30T02:41:38;1.02;;;1.02;;
17662;SDS011;8950;56.892;15.090;2023-03-30T02:44:10;0.80;;;0.80;;
17662;SDS011;8950;56.892;15.090;2023-03-30T02:46:55;1.00;;;1.00;;
17662;SDS011;8950;56.892;15.090;2023-03-30T02:49:25;0.90;;;0.90;;
17662;SDS011;8950;56.892;15.090;2023-03-30T02:51:55;1.00;;;1.00;;
17662;SDS011;8950;56.892;15.090;2023-03-30T02:54:27;0.90;;;0.90;;
17662;SDS011;8950;56.892;15.090;2023-03-30T02:56:56;1.00;;;1.00;;
17662;SDS011;8950;56.892;15.090;2023-03-30T02:59:29;1.13;;;1.00;;
17662;SDS011;8950;56.892;15.090;2023-03-30T03:01:59;0.90;;;0.90;;
17662;SDS011;8950;56.892;15.090;2023-03-30T03:04:28;1.10;;;1.00;;
17662;SDS011;8950;56.892;15.090;2023-03-30T03:06:58;1.27;;;1.00;;
17662;SDS011;8950;56.892;15.090;2023-03-30T03:09:26;0.85;;;0.85;;
17662;SDS011;8950;56.892;15.090;2023-03-30T03:11:53;0.90;;;0.90;;
17662;SDS011;8950;56.892;15.090;2023-03-30T03:14:20;0.80;;;0.80;;
17662;SDS011;8950;56.892;15.090;2023-03-30T03:16:48;1.48;;;1.10;;
17662;SDS011;8950;56.892;15.090;2023-03-30T03:19:14;0.90;;;0.90;;
17662;SDS011;8950;56.892;15.090;2023-03-30T03:21:41;1.00;;;1.00;;
17662;SDS011;8950;56.892;15.090;2023-03-30T03:24:08;0.90;;;0.90;;
17662;SDS011;8950;56.892;15.090;2023-03-30T03:26:37;1.10;;;1.00;;
17662;SDS011;8950;56.892;15.090;2023-03-30T03:29:04;1.10;;;1.00;;
17662;SDS011;8950;56.892;15.090;2023-03-30T03:31:30;1.10;;;1.00;;
17662;SDS011;8950;56.892;15.090;2023-03-30T03:33:58;1.00;;;1.00;;
17662;SDS011;8950;56.892;15.090;2023-03-30T03:36:25;1.17;;;0.90;;
17662;SDS011;8950;56.892;15.090;2023-03-30T03:38:51;0.90;;;0.90;;
17662;SDS011;8950;56.892;15.090;2023-03-30T03:41:18;0.93;;;0.90;;
17662;SDS011;8950;56.892;15.090;2023-03-30T03:43:44;0.80;;;0.80;;
17662;SDS011;8950;56.892;15.090;2023-03-30T03:46:11;1.00;;;1.00;;
17662;SDS011;8950;56.892;15.090;2023-03-30T03:48:38;0.90;;;0.90;;
17662;SDS011;8950;56.892;15.090;2023-03-30T03:51:05;0.90;;;0.90;;
17662;SDS011;8950;56.892;15.090;2023-03-30T03:53:33;1.08;;;0.98;;
17662;SDS011;8950;56.892;15.090;2023-03-30T03:55:59;0.90;;;0.90;;
17662;SDS011;8950;56.892;15.090;2023-03-30T03:58:26;0.90;;;0.90;;
17662;SDS011;8950;56.892;15.090;2023-03-30T04:00:56;0.90;;;0.90;;
17662;SDS011;8950;56.892;15.090;2023-03-30T04:03:23;1.27;;;1.17;;
17662;SDS011;8950;56.892;15.090;2023-03-30T04:05:49;0.80;;;0.80;;
17662;SDS011;8950;56.892;15.090;2023-03-30T04:08:17;1.00;;;1.00;;
17662;SDS011;8950;56.892;15.090;2023-03-30T04:10:43;0.98;;;0.98;;
17662;SDS011;8950;56.892;15.090;2023-03-30T04:13:10;1.08;;;1.02;;
17662;SDS011;8950;56.892;15.090;2023-03-30T04:15:36;0.82;;;0.82;;
17662;SDS011;8950;56.892;15.090;2023-03-30T04:18:03;0.82;;;0.82;;
17662;SDS011;8950;56.892;15.090;2023-03-30T04:20:30;0.93;;;0.93;;
17662;SDS011;8950;56.892;15.090;2023-03-30T04:22:56;1.08;;;1.08;;
17662;SDS011;8950;56.892;15.090;2023-03-30T04:25:27;1.10;;;1.00;;
17662;SDS011;8950;56.892;15.090;2023-03-30T04:27:54;1.20;;;1.10;;
17662;SDS011;8950;56.892;15.090;2023-03-30T04:30:21;0.90;;;0.90;;
17662;SDS011;8950;56.892;15.090;2023-03-30T04:32:47;1.17;;;1.10;;
17662;SDS011;8950;56.892;15.090;2023-03-30T04:35:26;0.90;;;0.90;;
17662;SDS011;8950;56.892;15.090;2023-03-30T04:37:53;0.90;;;0.90;;
17662;SDS011;8950;56.892;15.090;2023-03-30T04:40:22;0.98;;;0.98;;
17662;SDS011;8950;56.892;15.090;2023-03-30T04:42:49;1.00;;;1.00;;
17662;SDS011;8950;56.892;15.090;2023-03-30T04:45:16;0.93;;;0.90;;
17662;SDS011;8950;56.892;15.090;2023-03-30T04:47:43;1.10;;;1.10;;
17662;SDS011;8950;56.892;15.090;2023-03-30T04:50:10;0.90;;;0.90;;
17662;SDS011;8950;56.892;15.090;2023-03-30T04:52:37;2.55;;;1.20;;
17662;SDS011;8950;56.892;15.090;2023-03-30T04:55:04;1.10;;;1.00;;
17662;SDS011;8950;56.892;15.090;2023-03-30T04:57:30;0.98;;;0.98;;
17662;SDS011;8950;56.892;15.090;2023-03-30T04:59:58;1.10;;;1.02;;
17662;SDS011;8950;56.892;15.090;2023-03-30T05:02:25;1.13;;;1.02;;
17662;SDS011;8950;56.892;15.090;2023-03-30T05:04:52;1.63;;;1.10;;
17662;SDS011;8950;56.892;15.090;2023-03-30T05:07:18;1.17;;;1.08;;
17662;SDS011;8950;56.892;15.090;2023-03-30T05:09:45;1.25;;;1.15;;
17662;SDS011;8950;56.892;15.090;2023-03-30T05:12:12;1.42;;;1.10;;
17662;SDS011;8950;56.892;15.090;2023-03-30T05:14:38;1.20;;;1.10;;
17662;SDS011;8950;56.892;15.090;2023-03-30T05:17:06;1.00;;;1.00;;
17662;SDS011;8950;56.892;15.090;2023-03-30T05:19:32;1.00;;;1.00;;
17662;SDS011;8950;56.892;15.090;2023-03-30T05:21:59;1.00;;;1.00;;
17662;SDS011;8950;56.892;15.090;2023-03-30T05:24:25;1.13;;;1.00;;
17662;SDS011;8950;56.892;15.090;2023-03-30T05:26:52;1.17;;;1.10;;
17662;SDS011;8950;56.892;15.090;2023-03-30T05:29:18;0.90;;;0.90;;
17662;SDS011;8950;56.892;15.090;2023-03-30T05:31:45;1.00;;;1.00;;
17662;SDS011;8950;56.892;15.090;2023-03-30T05:34:12;1.33;;;1.10;;
17662;SDS011;8950;56.892;15.090;2023-03-30T05:36:39;1.33;;;1.20;;
17662;SDS011;8950;56.892;15.090;2023-03-30T05:39:05;1.20;;;1.10;;
17662;SDS011;8950;56.892;15.090;2023-03-30T05:41:33;1.00;;;1.00;;
17662;SDS011;8950;56.892;15.090;2023-03-30T05:43:59;1.00;;;1.00;;
17662;SDS011;8950;56.892;15.090;2023-03-30T05:46:25;1.23;;;1.13;;
17662;SDS011;8950;56.892;15.090;2023-03-30T05:48:52;1.33;;;1.00;;
17662;SDS011;8950;56.892;15.090;2023-03-30T05:51:20;1.30;;;1.20;;
17662;SDS011;8950;56.892;15.090;2023-03-30T05:53:47;1.50;;;1.20;;
17662;SDS011;8950;56.892;15.090;2023-03-30T05:56:13;1.20;;;1.10;;
17662;SDS011;8950;56.892;15.090;2023-03-30T05:58:40;1.20;;;1.10;;
17662;SDS011;8950;56.892;15.090;2023-03-30T06:01:07;1.20;;;1.10;;
17662;SDS011;8950;56.892;15.090;2023-03-30T06:03:35;1.23;;;1.13;;
17662;SDS011;8950;56.892;15.090;2023-03-30T06:06:03;1.27;;;1.10;;
17662;SDS011;8950;56.892;15.090;2023-03-30T06:08:31;1.25;;;1.17;;
17662;SDS011;8950;56.892;15.090;2023-03-30T06:10:57;1.67;;;1.20;;
17662;SDS011;8950;56.892;15.090;2023-03-30T06:13:24;1.20;;;1.10;;
17662;SDS011;8950;56.892;15.090;2023-03-30T06:15:51;1.45;;;1.20;;
17662;SDS011;8950;56.892;15.090;2023-03-30T06:18:18;1.08;;;1.08;;
17662;SDS011;8950;56.892;15.090;2023-03-30T06:20:45;1.17;;;1.10;;
17662;SDS011;8950;56.892;15.090;2023-03-30T06:23:11;0.98;;;0.98;;
17662;SDS011;8950;56.892;15.090;2023-03-30T06:25:39;1.30;;;1.13;;
17662;SDS011;8950;56.892;15.090;2023-03-30T06:28:06;1.25;;;1.10;;
17662;SDS011;8950;56.892;15.090;2023-03-30T06:30:33;1.52;;;1.25;;
17662;SDS011;8950;56.892;15.090;2023-03-30T06:32:59;1.65;;;1.27;;
17662;SDS011;8950;56.892;15.090;2023-03-30T06:35:26;1.75;;;1.30;;
17662;SDS011;8950;56.892;15.090;2023-03-30T06:37:53;1.30;;;1.20;;
17662;SDS011;8950;56.892;15.090;2023-03-30T06:40:20;1.17;;;1.17;;
17662;SDS011;8950;56.892;15.090;2023-03-30T06:42:48;1.30;;;1.20;;
17662;SDS011;8950;56.892;15.090;2023-03-30T06:45:14;1.45;;;1.20;;
17662;SDS011;8950;56.892;15.090;2023-03-30T06:47:41;1.20;;;1.10;;
17662;SDS011;8950;56.892;15.090;2023-03-30T06:50:07;1.30;;;1.20;;
17662;SDS011;8950;56.892;15.090;2023-03-30T06:52:34;1.38;;;1.10;;
17662;SDS011;8950;56.892;15.090;2023-03-30T06:55:01;1.33;;;1.20;;
17662;SDS011;8950;56.892;15.090;2023-03-30T06:57:27;1.50;;;1.17;;
17662;SDS011;8950;56.892;15.090;2023-03-30T06:59:56;1.10;;;1.00;;
17662;SDS011;8950;56.892;15.090;2023-03-30T07:02:22;1.30;;;1.20;;
17662;SDS011;8950;56.892;15.090;2023-03-30T07:04:49;0.90;;;0.90;;
17662;SDS011;8950;56.892;15.090;2023-03-30T07:07:16;1.17;;;1.08;;
17662;SDS011;8950;56.892;15.090;2023-03-30T07:09:43;1.27;;;1.17;;
17662;SDS011;8950;56.892;15.090;2023-03-30T07:12:09;1.13;;;1.02;;
17662;SDS011;8950;56.892;15.090;2023-03-30T07:14:36;1.23;;;1.13;;
17662;SDS011;8950;56.892;15.090;2023-03-30T07:17:04;1.20;;;1.10;;
17662;SDS011;8950;56.892;15.090;2023-03-30T07:19:31;1.30;;;1.17;;
17662;SDS011;8950;56.892;15.090;2023-03-30T07:21:58;1.45;;;1.13;;
17662;SDS011;8950;56.892;15.090;2023-03-30T07:24:24;1.13;;;1.10;;
17662;SDS011;8950;56.892;15.090;2023-03-30T07:26:50;1.17;;;1.00;;
17662;SDS011;8950;56.892;15.090;2023-03-30T07:29:17;1.23;;;1.02;;
17662;SDS011;8950;56.892;15.090;2023-03-30T07:31:43;1.10;;;1.10;;
17662;SDS011;8950;56.892;15.090;2023-03-30T07:34:11;1.15;;;1.10;;
17662;SDS011;8950;56.892;15.090;2023-03-30T07:36:37;1.10;;;1.00;;
17662;SDS011;8950;56.892;15.090;2023-03-30T07:39:04;1.33;;;1.10;;
17662;SDS011;8950;56.892;15.090;2023-03-30T07:41:32;1.02;;;0.98;;
17662;SDS011;8950;56.892;15.090;2023-03-30T07:43:58;1.20;;;1.10;;
17662;SDS011;8950;56.892;15.090;2023-03-30T07:46:25;1.00;;;1.00;;
17662;SDS011;8950;56.892;15.090;2023-03-30T07:48:51;1.40;;;1.00;;
17662;SDS011;8950;56.892;15.090;2023-03-30T07:51:20;1.10;;;1.02;;
17662;SDS011;8950;56.892;15.090;2023-03-30T07:53:46;1.00;;;1.00;;
17662;SDS011;8950;56.892;15.090;2023-03-30T07:56:14;0.98;;;0.98;;
17662;SDS011;8950;56.892;15.090;2023-03-30T07:58:40;1.15;;;1.05;;
17662;SDS011;8950;56.892;15.090;2023-03-30T08:01:08;1.20;;;1.10;;
17662;SDS011;8950;56.892;15.090;2023-03-30T08:03:37;1.10;;;1.00;;
17662;SDS011;8950;56.892;15.090;2023-03-30T08:06:03;0.80;;;0.80;;
17662;SDS011;8950;56.892;15.090;2023-03-30T08:08:32;1.05;;;1.05;;
17662;SDS011;8950;56.892;15.090;2023-03-30T08:10:58;1.25;;;1.15;;
17662;SDS011;8950;56.892;15.090;2023-03-30T08:13:25;1.45;;;1.17;;
17662;SDS011;8950;56.892;15.090;2023-03-30T08:15:52;1.00;;;1.00;;
17662;SDS011;8950;56.892;15.090;2023-03-30T08:18:18;1.23;;;1.15;;
17662;SDS011;8950;56.892;15.090;2023-03-30T08:20:48;0.95;;;0.95;;
17662;SDS011;8950;56.892;15.090;2023-03-30T08:23:14;0.90;;;0.90;;
17662;SDS011;8950;56.892;15.090;2023-03-30T08:25:42;1.10;;;1.10;;
17662;SDS011;8950;56.892;15.090;2023-03-30T08:28:10;1.00;;;1.00;;
17662;SDS011;8950;56.892;15.090;2023-03-30T08:30:37;1.10;;;1.10;;
17662;SDS011;8950;56.892;15.090;2023-03-30T08:33:04;1.10;;;1.10;;
17662;SDS011;8950;56.892;15.090;2023-03-30T08:35:32;1.00;;;1.00;;
17662;SDS011;8950;56.892;15.090;2023-03-30T08:37:59;1.08;;;1.08;;
17662;SDS011;8950;56.892;15.090;2023-03-30T08:40:26;1.00;;;1.00;;
17662;SDS011;8950;56.892;15.090;2023-03-30T08:45:36;1.23;;;1.15;;
17662;SDS011;8950;56.892;15.090;2023-03-30T08:48:03;1.25;;;1.20;;
17662;SDS011;8950;56.892;15.090;2023-03-30T08:50:31;0.90;;;0.90;;
17662;SDS011;8950;56.892;15.090;2023-03-30T08:52:58;1.23;;;1.13;;
17662;SDS011;8950;56.892;15.090;2023-03-30T08:55:27;1.10;;;1.08;;
17662;SDS011;8950;56.892;15.090;2023-03-30T08:57:55;1.10;;;1.10;;
17662;SDS011;8950;56.892;15.090;2023-03-30T09:00:25;1.42;;;1.02;;
17662;SDS011;8950;56.892;15.090;2023-03-30T09:02:59;1.15;;;1.05;;
17662;SDS011;8950;56.892;15.090;2023-03-30T09:05:27;1.20;;;1.10;;
17662;SDS011;8950;56.892;15.090;2023-03-30T09:07:56;1.10;;;1.00;;
17662;SDS011;8950;56.892;15.090;2023-03-30T09:10:26;1.33;;;1.00;;
17662;SDS011;8950;56.892;15.090;2023-03-30T09:12:54;1.10;;;1.00;;
17662;SDS011;8950;56.892;15.090;2023-03-30T09:15:24;1.13;;;0.90;;
17662;SDS011;8950;56.892;15.090;2023-03-30T09:17:52;1.00;;;1.00;;
17662;SDS011;8950;56.892;15.090;2023-03-30T09:20:23;1.00;;;1.00;;
17662;SDS011;8950;56.892;15.090;2023-03-30T09:22:50;1.15;;;1.10;;
17662;SDS011;8950;56.892;15.090;2023-03-30T09:25:19;1.30;;;1.20;;
17662;SDS011;8950;56.892;15.090;2023-03-30T09:27:50;1.20;;;1.10;;
17662;SDS011;8950;56.892;15.090;2023-03-30T09:30:20;1.00;;;1.00;;
17662;SDS011;8950;56.892;15.090;2023-03-30T09:32:56;1.10;;;1.10;;
17662;SDS011;8950;56.892;15.090;2023-03-30T09:35:25;1.30;;;1.20;;
17662;SDS011;8950;56.892;15.090;2023-03-30T09:37:53;1.05;;;1.00;;
17662;SDS011;8950;56.892;15.090;2023-03-30T09:40:23;1.15;;;1.02;;
17662;SDS011;8950;56.892;15.090;2023-03-30T09:42:53;1.27;;;1.17;;
17662;SDS011;8950;56.892;15.090;2023-03-30T09:45:24;1.23;;;1.10;;
17662;SDS011;8950;56.892;15.090;2023-03-30T09:47:51;1.10;;;1.10;;
17662;SDS011;8950;56.892;15.090;2023-03-30T09:50:18;1.52;;;1.20;;
17662;SDS011;8950;56.892;15.090;2023-03-30T09:52:55;1.35;;;1.25;;
17662;SDS011;8950;56.892;15.090;2023-03-30T09:55:26;2.00;;;1.17;;
17662;SDS011;8950;56.892;15.090;2023-03-30T09:57:52;1.25;;;1.15;;
17662;SDS011;8950;56.892;15.090;2023-03-30T10:00:24;1.20;;;1.10;;
17662;SDS011;8950;56.892;15.090;2023-03-30T10:02:54;1.30;;;1.20;;
17662;SDS011;8950;56.892;15.090;2023-03-30T10:05:21;1.20;;;1.10;;
17662;SDS011;8950;56.892;15.090;2023-03-30T10:07:51;1.50;;;1.20;;
17662;SDS011;8950;56.892;15.090;2023-03-30T10:10:27;1.33;;;1.23;;
17662;SDS011;8950;56.892;15.090;2023-03-30T10:12:56;1.30;;;1.20;;
17662;SDS011;8950;56.892;15.090;2023-03-30T10:15:27;1.33;;;1.23;;
17662;SDS011;8950;56.892;15.090;2023-03-30T10:17:55;1.40;;;1.30;;
17662;SDS011;8950;56.892;15.090;2023-03-30T10:20:26;1.30;;;1.20;;
17662;SDS011;8950;56.892;15.090;2023-03-30T10:22:54;1.35;;;1.25;;
17662;SDS011;8950;56.892;15.090;2023-03-30T10:25:22;1.58;;;1.33;;
17662;SDS011;8950;56.892;15.090;2023-03-30T10:27:50;1.40;;;1.30;;
17662;SDS011;8950;56.892;15.090;2023-03-30T10:30:20;1.40;;;1.30;;
17662;SDS011;8950;56.892;15.090;2023-03-30T10:32:48;1.30;;;1.20;;
17662;SDS011;8950;56.892;15.090;2023-03-30T10:35:16;1.13;;;1.13;;
17662;SDS011;8950;56.892;15.090;2023-03-30T10:37:44;1.35;;;1.25;;
17662;SDS011;8950;56.892;15.090;2023-03-30T10:40:14;1.40;;;1.30;;
17662;SDS011;8950;56.892;15.090;2023-03-30T10:42:42;1.40;;;1.30;;
17662;SDS011;8950;56.892;15.090;2023-03-30T10:45:14;1.35;;;1.27;;
17662;SDS011;8950;56.892;15.090;2023-03-30T10:47:45;1.50;;;1.40;;
17662;SDS011;8950;56.892;15.090;2023-03-30T10:50:17;1.30;;;1.20;;
17662;SDS011;8950;56.892;15.090;2023-03-30T10:52:49;1.20;;;1.20;;
17662;SDS011;8950;56.892;15.090;2023-03-30T10:55:22;1.52;;;1.38;;
17662;SDS011;8950;56.892;15.090;2023-03-30T10:57:51;1.15;;;1.10;;
17662;SDS011;8950;56.892;15.090;2023-03-30T11:03:07;1.40;;;1.30;;
17662;SDS011;8950;56.892;15.090;2023-03-30T11:05:37;1.50;;;1.40;;
17662;SDS011;8950;56.892;15.090;2023-03-30T11:08:05;1.55;;;1.45;;
17662;SDS011;8950;56.892;15.090;2023-03-30T11:10:35;1.60;;;1.30;;
17662;SDS011;8950;56.892;15.090;2023-03-30T11:13:02;1.40;;;1.30;;
17662;SDS011;8950;56.892;15.090;2023-03-30T11:15:32;1.13;;;1.10;;
17662;SDS011;8950;56.892;15.090;2023-03-30T11:18:02;1.48;;;1.38;;
17662;SDS011;8950;56.892;15.090;2023-03-30T11:20:31;1.25;;;1.20;;
17662;SDS011;8950;56.892;15.090;2023-03-30T11:23:01;1.30;;;1.25;;
17662;SDS011;8950;56.892;15.090;2023-03-30T11:25:29;1.33;;;1.23;;
17662;SDS011;8950;56.892;15.090;2023-03-30T11:27:58;1.42;;;1.23;;
17662;SDS011;8950;56.892;15.090;2023-03-30T11:30:27;1.08;;;1.08;;
17662;SDS011;8950;56.892;15.090;2023-03-30T11:32:56;1.40;;;1.30;;
17662;SDS011;8950;56.892;15.090;2023-03-30T11:35:26;1.50;;;1.40;;
17662;SDS011;8950;56.892;15.090;2023-03-30T11:37:56;1.63;;;1.20;;
17662;SDS011;8950;56.892;15.090;2023-03-30T11:40:25;1.40;;;1.30;;
17662;SDS011;8950;56.892;15.090;2023-03-30T11:42:52;1.20;;;1.10;;
17662;SDS011;8950;56.892;15.090;2023-03-30T11:45:24;1.10;;;1.10;;
17662;SDS011;8950;56.892;15.090;2023-03-30T11:47:58;1.40;;;1.30;;
17662;SDS011;8950;56.892;15.090;2023-03-30T11:50:31;1.10;;;1.10;;
17662;SDS011;8950;56.892;15.090;2023-03-30T11:53:08;1.45;;;1.35;;
17662;SDS011;8950;56.892;15.090;2023-03-30T11:55:40;1.23;;;1.13;;
17662;SDS011;8950;56.892;15.090;2023-03-30T11:58:14;1.00;;;1.00;;
17662;SDS011;8950;56.892;15.090;2023-03-30T12:00:47;1.00;;;1.00;;
17662;SDS011;8950;56.892;15.090;2023-03-30T12:03:28;1.30;;;1.20;;
17662;SDS011;8950;56.892;15.090;2023-03-30T12:06:02;1.10;;;1.10;;
17662;SDS011;8950;56.892;15.090;2023-03-30T12:08:39;1.00;;;1.00;;
17662;SDS011;8950;56.892;15.090;2023-03-30T12:11:11;1.05;;;1.05;;
17662;SDS011;8950;56.892;15.090;2023-03-30T12:13:38;1.20;;;1.20;;
17662;SDS011;8950;56.892;15.090;2023-03-30T12:16:06;1.30;;;1.20;;
17662;SDS011;8950;56.892;15.090;2023-03-30T12:18:35;1.10;;;1.10;;
17662;SDS011;8950;56.892;15.090;2023-03-30T12:21:08;1.70;;;1.20;;
17662;SDS011;8950;56.892;15.090;2023-03-30T12:23:37;1.20;;;1.10;;
17662;SDS011;8950;56.892;15.090;2023-03-30T12:26:18;0.90;;;0.90;;
17662;SDS011;8950;56.892;15.090;2023-03-30T12:28:54;1.02;;;1.02;;
17662;SDS011;8950;56.892;15.090;2023-03-30T12:31:22;1.15;;;1.05;;
17662;SDS011;8950;56.892;15.090;2023-03-30T12:34:08;1.02;;;1.02;;
17662;SDS011;8950;56.892;15.090;2023-03-30T12:36:35;1.10;;;1.10;;
17662;SDS011;8950;56.892;15.090;2023-03-30T12:39:04;1.20;;;1.20;;
17662;SDS011;8950;56.892;15.090;2023-03-30T12:41:40;1.10;;;1.05;;
17662;SDS011;8950;56.892;15.090;2023-03-30T12:47:08;1.00;;;1.00;;
17662;SDS011;8950;56.892;15.090;2023-03-30T12:49:40;1.33;;;1.10;;
17662;SDS011;8950;56.892;15.090;2023-03-30T12:52:09;1.00;;;1.00;;
17662;SDS011;8950;56.892;15.090;2023-03-30T12:57:25;1.00;;;1.00;;
17662;SDS011;8950;56.892;15.090;2023-03-30T13:00:00;1.10;;;1.10;;
17662;SDS011;8950;56.892;15.090;2023-03-30T13:05:19;1.20;;;1.10;;
17662;SDS011;8950;56.892;15.090;2023-03-30T13:07:49;1.40;;;1.30;;
17662;SDS011;8950;56.892;15.090;2023-03-30T13:10:34;1.20;;;1.20;;
17662;SDS011;8950;56.892;15.090;2023-03-30T13:13:03;1.23;;;1.13;;
17662;SDS011;8950;56.892;15.090;2023-03-30T13:15:33;1.15;;;1.10;;
17662;SDS011;8950;56.892;15.090;2023-03-30T13:18:00;1.10;;;1.10;;
17662;SDS011;8950;56.892;15.090;2023-03-30T13:20:28;1.25;;;1.15;;
17662;SDS011;8950;56.892;15.090;2023-03-30T13:22:59;1.30;;;1.20;;
17662;SDS011;8950;56.892;15.090;2023-03-30T13:25:28;1.40;;;1.30;;
17662;SDS011;8950;56.892;15.090;2023-03-30T13:27:56;1.40;;;1.30;;
17662;SDS011;8950;56.892;15.090;2023-03-30T13:30:25;1.40;;;1.30;;
17662;SDS011;8950;56.892;15.090;2023-03-30T13:33:03;1.50;;;1.40;;
17662;SDS011;8950;56.892;15.090;2023-03-30T13:38:26;1.30;;;1.20;;
17662;SDS011;8950;56.892;15.090;2023-03-30T13:40:56;1.65;;;1.55;;
17662;SDS011;8950;56.892;15.090;2023-03-30T13:43:28;1.48;;;1.38;;
17662;SDS011;8950;56.892;15.090;2023-03-30T13:46:03;1.40;;;1.30;;
17662;SDS011;8950;56.892;15.090;2023-03-30T13:48:37;1.40;;;1.30;;
17662;SDS011;8950;56.892;15.090;2023-03-30T13:51:08;1.58;;;1.48;;
17662;SDS011;8950;56.892;15.090;2023-03-30T13:53:37;1.42;;;1.33;;
17662;SDS011;8950;56.892;15.090;2023-03-30T13:56:05;1.50;;;1.40;;
17662;SDS011;8950;56.892;15.090;2023-03-30T13:58:32;1.58;;;1.40;;
17662;SDS011;8950;56.892;15.090;2023-03-30T14:01:04;1.67;;;1.38;;
17662;SDS011;8950;56.892;15.090;2023-03-30T14:03:32;1.60;;;1.50;;
17662;SDS011;8950;56.892;15.090;2023-03-30T14:06:01;1.50;;;1.40;;
17662;SDS011;8950;56.892;15.090;2023-03-30T14:08:29;1.35;;;1.25;;
17662;SDS011;8950;56.892;15.090;2023-03-30T14:10:58;1.40;;;1.30;;
17662;SDS011;8950;56.892;15.090;2023-03-30T14:13:25;1.40;;;1.30;;
17662;SDS011;8950;56.892;15.090;2023-03-30T14:15:52;1.15;;;1.15;;
17662;SDS011;8950;56.892;15.090;2023-03-30T14:18:21;1.40;;;1.30;;
17662;SDS011;8950;56.892;15.090;2023-03-30T14:20:49;1.30;;;1.20;;
17662;SDS011;8950;56.892;15.090;2023-03-30T14:23:18;1.45;;;1.35;;
17662;SDS011;8950;56.892;15.090;2023-03-30T14:25:45;1.42;;;1.33;;
17662;SDS011;8950;56.892;15.090;2023-03-30T14:28:12;1.30;;;1.20;;
17662;SDS011;8950;56.892;15.090;2023-03-30T14:30:46;1.27;;;1.23;;
17662;SDS011;8950;56.892;15.090;2023-03-30T14:33:13;1.50;;;1.40;;
17662;SDS011;8950;56.892;15.090;2023-03-30T14:35:42;1.10;;;1.10;;
17662;SDS011;8950;56.892;15.090;2023-03-30T14:38:12;1.30;;;1.20;;
17662;SDS011;8950;56.892;15.090;2023-03-30T14:40:39;1.13;;;1.13;;
17662;SDS011;8950;56.892;15.090;2023-03-30T14:43:05;1.20;;;1.20;;
17662;SDS011;8950;56.892;15.090;2023-03-30T14:45:32;1.00;;;1.00;;
17662;SDS011;8950;56.892;15.090;2023-03-30T14:47:58;0.93;;;0.93;;
17662;SDS011;8950;56.892;15.090;2023-03-30T14:50:25;1.00;;;1.00;;
17662;SDS011;8950;56.892;15.090;2023-03-30T14:52:53;1.08;;;1.08;;
17662;SDS011;8950;56.892;15.090;2023-03-30T14:55:21;1.13;;;1.00;;
17662;SDS011;8950;56.892;15.090;2023-03-30T14:57:48;0.90;;;0.90;;
17662;SDS011;8950;56.892;15.090;2023-03-30T15:00:16;0.98;;;0.98;;
17662;SDS011;8950;56.892;15.090;2023-03-30T15:02:44;1.00;;;1.00;;
17662;SDS011;8950;56.892;15.090;2023-03-30T15:05:13;1.00;;;1.00;;
17662;SDS011;8950;56.892;15.090;2023-03-30T15:07:40;0.90;;;0.90;;
17662;SDS011;8950;56.892;15.090;2023-03-30T15:10:18;0.95;;;0.95;;
17662;SDS011;8950;56.892;15.090;2023-03-30T15:12:45;1.00;;;1.00;;
17662;SDS011;8950;56.892;15.090;2023-03-30T15:15:12;1.00;;;1.00;;
17662;SDS011;8950;56.892;15.090;2023-03-30T15:17:39;1.05;;;1.05;;
17662;SDS011;8950;56.892;15.090;2023-03-30T15:20:09;1.00;;;1.00;;
17662;SDS011;8950;56.892;15.090;2023-03-30T15:22:37;0.98;;;0.98;;
17662;SDS011;8950;56.892;15.090;2023-03-30T15:25:06;1.00;;;1.00;;